createdAt,value
2019-01-14T00:00:47.448Z,38.14
2019-01-14T00:01:47.516Z,38.44
2019-01-14T00:02:47.442Z,38.14
2019-01-14T00:03:47.437Z,38.44
2019-01-14T00:04:47.427Z,38.34
2019-01-14T00:05:47.407Z,38.44
2019-01-14T00:06:47.376Z,38.12
2019-01-14T00:07:47.383Z,37.94
2019-01-14T00:08:47.371Z,38.22
2019-01-14T00:09:47.368Z,37.54
2019-01-14T00:10:47.342Z,37.74
2019-01-14T00:11:47.319Z,37.32
2019-01-14T00:12:47.320Z,37.42
2019-01-14T00:13:47.302Z,37.82
2019-01-14T00:14:47.298Z,37.82
2019-01-14T00:15:47.287Z,37.72
2019-01-14T00:16:47.290Z,37.94
2019-01-14T00:17:47.268Z,37.84
2019-01-14T00:18:47.252Z,37.84
2019-01-14T00:19:47.259Z,37.54
2019-01-14T00:20:47.260Z,37.94
2019-01-14T00:21:47.220Z,37.52
2019-01-14T00:22:47.199Z,37.92
2019-01-14T00:23:47.237Z,37.54
2019-01-14T00:24:47.186Z,37.63
2019-01-14T00:25:47.168Z,37.74
2019-01-14T00:26:47.184Z,37.34
2019-01-14T00:27:47.156Z,38.84
2019-01-14T00:28:47.140Z,37.74
2019-01-14T00:29:47.136Z,37.24
2019-01-14T00:30:47.116Z,37.94
2019-01-14T00:31:47.109Z,37.74
2019-01-14T00:32:47.142Z,38.02
2019-01-14T00:33:47.080Z,37.92
2019-01-14T00:34:47.099Z,38.02
2019-01-14T00:35:47.063Z,37.42
2019-01-14T00:36:47.052Z,37.42
2019-01-14T00:37:47.031Z,37.32
2019-01-14T00:38:47.029Z,37.42
2019-01-14T00:39:47.038Z,37.22
2019-01-14T00:40:47.004Z,37.22
2019-01-14T00:41:46.991Z,37.42
2019-01-14T00:42:47.015Z,37.22
2019-01-14T00:43:46.987Z,38.32
2019-01-14T00:44:46.963Z,37.42
2019-01-14T00:45:46.946Z,37.22
2019-01-14T00:46:46.947Z,37.44
2019-01-14T00:47:46.964Z,38.04
2019-01-14T00:48:46.911Z,37.62
2019-01-14T00:49:46.940Z,38.24
2019-01-14T00:50:46.888Z,37.63
2019-01-14T00:51:46.879Z,37.63
2019-01-14T00:52:46.886Z,38.14
2019-01-14T00:53:46.864Z,37.84
2019-01-14T00:54:46.906Z,38.24
2019-01-14T00:55:46.849Z,37.52
2019-01-14T00:56:46.825Z,37.94
2019-01-14T00:57:46.809Z,37.34
2019-01-14T00:58:46.801Z,37.63
2019-01-14T00:59:46.807Z,37.42
2019-01-14T01:00:46.872Z,37.44
2019-01-14T01:01:46.774Z,37.44
2019-01-14T01:02:46.763Z,37.44
2019-01-14T01:03:46.752Z,37.44
2019-01-14T01:04:46.772Z,37.24
2019-01-14T01:05:46.814Z,37.24
2019-01-14T01:06:46.716Z,37.54
2019-01-14T01:07:46.696Z,37.24
2019-01-14T01:08:46.727Z,37.44
2019-01-14T01:09:46.724Z,37.34
2019-01-14T01:10:46.706Z,37.34
2019-01-14T01:11:46.659Z,37.34
2019-01-14T01:12:46.654Z,37.55
2019-01-14T01:13:46.636Z,37.34
2019-01-14T01:14:46.620Z,37.44
2019-01-14T01:15:46.626Z,37.34
2019-01-14T01:16:46.652Z,37.24
2019-01-14T01:17:46.607Z,36.93
2019-01-14T01:18:46.594Z,37.04
2019-01-14T01:19:46.567Z,37.04
2019-01-14T01:20:46.576Z,36.83
2019-01-14T01:21:46.554Z,36.43
2019-01-14T01:22:46.551Z,36.73
2019-01-14T01:23:46.526Z,36.83
2019-01-14T01:24:46.515Z,37.13
2019-01-14T01:25:46.542Z,37.04
2019-01-14T01:26:46.495Z,37.13
2019-01-14T01:27:46.481Z,36.83
2019-01-14T01:28:46.463Z,36.83
2019-01-14T01:29:46.462Z,37.74
2019-01-14T01:30:46.509Z,37.34
2019-01-14T01:31:46.432Z,37.84
2019-01-14T01:32:46.438Z,37.24
2019-01-14T01:33:46.420Z,37.13
2019-01-14T01:34:46.409Z,37.84
2019-01-14T01:35:46.397Z,37.74
2019-01-14T01:36:46.421Z,37.74
2019-01-14T01:37:46.371Z,36.93
2019-01-14T01:38:46.398Z,36.83
2019-01-14T01:39:46.382Z,36.63
2019-01-14T01:40:46.431Z,36.54
2019-01-14T01:41:46.343Z,36.63
2019-01-14T01:42:46.338Z,36.93
2019-01-14T01:43:46.299Z,36.73
2019-01-14T01:44:46.317Z,37.34
2019-01-14T01:45:46.306Z,37.13
2019-01-14T01:46:46.331Z,36.93
2019-01-14T01:47:46.267Z,36.93
2019-01-14T01:48:46.305Z,37.04
2019-01-14T01:49:46.242Z,37.34
2019-01-14T01:50:46.241Z,36.73
2019-01-14T01:51:46.225Z,37.34
2019-01-14T01:52:46.211Z,36.93
2019-01-14T01:53:46.199Z,37.13
2019-01-14T01:54:46.178Z,37.13
2019-01-14T01:55:46.190Z,36.83
2019-01-14T01:56:46.155Z,36.63
2019-01-14T01:57:46.143Z,37.34
2019-01-14T01:58:46.149Z,37.13
2019-01-14T01:59:46.123Z,37.13
2019-01-14T02:00:46.167Z,37.55
2019-01-14T02:01:46.111Z,36.63
2019-01-14T02:02:46.153Z,36.73
2019-01-14T02:03:46.091Z,36.73
2019-01-14T02:04:46.065Z,36.63
2019-01-14T02:05:46.060Z,36.63
2019-01-14T02:06:46.056Z,36.73
2019-01-14T02:07:46.031Z,37.13
2019-01-14T02:08:46.036Z,36.93
2019-01-14T02:09:46.044Z,36.63
2019-01-14T02:10:46.065Z,36.93
2019-01-14T02:11:45.996Z,36.73
2019-01-14T02:12:46.056Z,36.83
2019-01-14T02:13:45.971Z,36.93
2019-01-14T02:14:45.954Z,37.74
2019-01-14T02:15:45.972Z,37.04
2019-01-14T02:16:45.975Z,37.74
2019-01-14T02:17:45.933Z,37.34
2019-01-14T02:18:45.917Z,37.34
2019-01-14T02:19:45.911Z,37.54
2019-01-14T02:20:45.924Z,37.44
2019-01-14T02:21:45.911Z,37.24
2019-01-14T02:22:45.884Z,37.13
2019-01-14T02:23:45.852Z,37.22
2019-01-14T02:24:45.859Z,37.24
2019-01-14T02:25:45.836Z,37.13
2019-01-14T02:26:45.836Z,37.54
2019-01-14T02:27:45.887Z,37.13
2019-01-14T02:28:45.812Z,37.54
2019-01-14T02:29:45.813Z,37.24
2019-01-14T02:30:45.783Z,37.24
2019-01-14T02:31:45.861Z,37.44
2019-01-14T02:32:45.755Z,37.34
2019-01-14T02:33:45.746Z,37.34
2019-01-14T02:34:45.786Z,37.24
2019-01-14T02:35:45.722Z,37.34
2019-01-14T02:36:48.497Z,37.34
2019-01-14T02:37:45.712Z,37.24
2019-01-14T02:38:45.723Z,37.54
2019-01-14T02:39:45.687Z,37.44
2019-01-14T02:40:45.746Z,37.13
2019-01-14T02:41:45.714Z,37.74
2019-01-14T02:42:45.650Z,36.93
2019-01-14T02:43:45.655Z,36.63
2019-01-14T02:44:45.630Z,37.94
2019-01-14T02:45:45.615Z,37.44
2019-01-14T02:46:45.616Z,36.93
2019-01-14T02:47:45.637Z,37.13
2019-01-14T02:48:45.598Z,37.34
2019-01-14T02:49:45.570Z,36.73
2019-01-14T02:50:45.554Z,36.63
2019-01-14T02:51:45.636Z,36.73
2019-01-14T02:52:45.562Z,37.13
2019-01-14T02:53:45.536Z,36.83
2019-01-14T02:54:45.556Z,36.93
2019-01-14T02:55:45.533Z,36.93
2019-01-14T02:56:45.528Z,36.93
2019-01-14T02:57:45.525Z,36.83
2019-01-14T02:58:45.475Z,37.54
2019-01-14T02:59:45.460Z,37.74
2019-01-14T03:00:45.449Z,37.74
2019-01-14T03:01:45.441Z,36.93
2019-01-14T03:02:45.522Z,37.24
2019-01-14T03:03:45.419Z,36.93
2019-01-14T03:04:45.416Z,36.93
2019-01-14T03:05:45.397Z,37.24
2019-01-14T03:06:45.410Z,36.73
2019-01-14T03:07:45.403Z,37.34
2019-01-14T03:08:45.354Z,36.93
2019-01-14T03:09:45.348Z,37.54
2019-01-14T03:10:45.346Z,37.54
2019-01-14T03:11:45.410Z,36.83
2019-01-14T03:12:45.325Z,37.63
2019-01-14T03:13:45.302Z,37.44
2019-01-14T03:14:45.305Z,37.54
2019-01-14T03:15:45.278Z,37.44
2019-01-14T03:16:45.331Z,37.13
2019-01-14T03:17:45.267Z,37.34
2019-01-14T03:18:45.270Z,37.24
2019-01-14T03:19:45.250Z,37.54
2019-01-14T03:20:45.231Z,36.33
2019-01-14T03:21:45.234Z,36.73
2019-01-14T03:22:45.207Z,36.73
2019-01-14T03:23:45.197Z,36.73
2019-01-14T03:24:45.178Z,37.13
2019-01-14T03:25:45.177Z,37.13
2019-01-14T03:26:45.169Z,37.44
2019-01-14T03:27:45.152Z,37.04
2019-01-14T03:28:45.151Z,37.24
2019-01-14T03:29:45.127Z,37.34
2019-01-14T03:30:45.111Z,37.24
2019-01-14T03:31:45.141Z,37.13
2019-01-14T03:32:45.145Z,37.13
2019-01-14T03:33:45.102Z,37.44
2019-01-14T03:34:45.111Z,37.44
2019-01-14T03:35:45.080Z,37.44
2019-01-14T03:36:45.053Z,36.85
2019-01-14T03:37:45.050Z,36.93
2019-01-14T03:38:45.035Z,37.05
2019-01-14T03:39:45.015Z,37.84
2019-01-14T03:40:45.021Z,37.44
2019-01-14T03:41:44.989Z,37.44
2019-01-14T03:42:45.006Z,37.04
2019-01-14T03:43:44.976Z,36.83
2019-01-14T03:44:45.001Z,36.93
2019-01-14T03:45:44.958Z,36.43
2019-01-14T03:46:44.941Z,36.13
2019-01-14T03:47:44.944Z,36.43
2019-01-14T03:48:44.924Z,36.33
2019-01-14T03:49:44.919Z,36.83
2019-01-14T03:50:44.898Z,36.73
2019-01-14T03:51:44.933Z,37.13
2019-01-14T03:52:44.996Z,36.35
2019-01-14T03:53:44.855Z,36.63
2019-01-14T03:54:44.876Z,36.85
2019-01-14T03:55:44.844Z,37.13
2019-01-14T03:56:44.855Z,37.35
2019-01-14T03:57:44.861Z,37.24
2019-01-14T03:58:44.935Z,37.13
2019-01-14T03:59:44.863Z,37.24
2019-01-14T04:00:44.794Z,37.46
2019-01-14T04:01:44.824Z,37.54
2019-01-14T04:02:44.805Z,37.24
2019-01-14T04:03:44.827Z,37.13
2019-01-14T04:04:44.766Z,36.83
2019-01-14T04:05:44.737Z,36.23
2019-01-14T04:06:44.720Z,36.43
2019-01-14T04:07:44.707Z,36.33
2019-01-14T04:08:44.738Z,36.33
2019-01-14T04:09:44.683Z,36.63
2019-01-14T04:10:44.669Z,36.93
2019-01-14T04:11:44.660Z,36.33
2019-01-14T04:12:44.652Z,36.33
2019-01-14T04:13:44.660Z,36.33
2019-01-14T04:14:44.622Z,36.23
2019-01-14T04:15:44.623Z,36.23
2019-01-14T04:16:44.601Z,36.23
2019-01-14T04:17:44.596Z,36.33
2019-01-14T04:18:44.595Z,36.54
2019-01-14T04:19:44.594Z,37.05
2019-01-14T04:20:44.569Z,36.93
2019-01-14T04:21:44.594Z,37.34
2019-01-14T04:22:44.578Z,37.44
2019-01-14T04:23:44.582Z,37.34
2019-01-14T04:24:44.526Z,37.26
2019-01-14T04:25:44.562Z,37.34
2019-01-14T04:26:44.535Z,37.85
2019-01-14T04:27:44.530Z,36.93
2019-01-14T04:28:44.486Z,36.95
2019-01-14T04:29:44.476Z,37.35
2019-01-14T04:30:44.521Z,37.34
2019-01-14T04:31:44.450Z,37.34
2019-01-14T04:32:44.446Z,37.04
2019-01-14T04:33:44.434Z,36.85
2019-01-14T04:34:44.421Z,36.73
2019-01-14T04:35:44.401Z,36.93
2019-01-14T04:36:44.412Z,36.33
2019-01-14T04:37:44.426Z,36.43
2019-01-14T04:38:44.368Z,36.33
2019-01-14T04:39:44.365Z,36.43
2019-01-14T04:40:44.336Z,36.43
2019-01-14T04:41:44.329Z,37.34
2019-01-14T04:42:44.320Z,37.04
2019-01-14T04:43:44.316Z,37.34
2019-01-14T04:44:44.365Z,37.05
2019-01-14T04:45:44.295Z,37.26
2019-01-14T04:46:44.284Z,37.05
2019-01-14T04:47:44.264Z,37.34
2019-01-14T04:48:44.318Z,37.13
2019-01-14T04:49:44.258Z,37.26
2019-01-14T04:50:44.224Z,37.76
2019-01-14T04:51:44.221Z,37.15
2019-01-14T04:52:44.210Z,37.15
2019-01-14T04:53:44.250Z,37.34
2019-01-14T04:54:44.180Z,36.23
2019-01-14T04:55:44.169Z,36.23
2019-01-14T04:56:44.177Z,36.33
2019-01-14T04:57:44.144Z,36.73
2019-01-14T04:58:44.150Z,37.13
2019-01-14T04:59:44.132Z,36.93
2019-01-14T05:00:44.129Z,36.93
2019-01-14T05:01:44.127Z,36.73
2019-01-14T05:02:44.150Z,36.73
2019-01-14T05:03:44.781Z,36.93
2019-01-14T05:04:44.116Z,36.63
2019-01-14T05:05:44.091Z,37.04
2019-01-14T05:06:44.064Z,36.73
2019-01-14T05:07:44.047Z,36.43
2019-01-14T05:08:44.042Z,36.43
2019-01-14T05:09:44.054Z,36.54
2019-01-14T05:10:44.016Z,36.43
2019-01-14T05:11:44.025Z,36.35
2019-01-14T05:12:44.048Z,36.43
2019-01-14T05:13:44.016Z,36.13
2019-01-14T05:14:43.980Z,36.23
2019-01-14T05:15:43.954Z,36.33
2019-01-14T05:16:43.938Z,36.45
2019-01-14T05:17:43.967Z,37.05
2019-01-14T05:18:43.949Z,36.65
2019-01-14T05:19:43.926Z,36.73
2019-01-14T05:20:43.896Z,36.73
2019-01-14T05:21:43.912Z,36.85
2019-01-14T05:22:43.950Z,37.04
2019-01-14T05:23:43.864Z,36.95
2019-01-14T05:24:43.880Z,36.83
2019-01-14T05:25:43.847Z,36.55
2019-01-14T05:26:43.832Z,36.85
2019-01-14T05:27:43.825Z,36.85
2019-01-14T05:28:43.813Z,36.85
2019-01-14T05:29:43.827Z,36.95
2019-01-14T05:30:43.828Z,36.75
2019-01-14T05:31:43.777Z,36.65
2019-01-14T05:32:43.757Z,36.45
2019-01-14T05:33:43.793Z,36.45
2019-01-14T05:34:43.773Z,36.45
2019-01-14T05:35:43.724Z,36.25
2019-01-14T05:36:43.735Z,36.25
2019-01-14T05:37:43.711Z,36.55
2019-01-14T05:38:43.709Z,36.16
2019-01-14T05:39:43.716Z,36.67
2019-01-14T05:40:43.677Z,36.08
2019-01-14T05:41:43.664Z,37.21
2019-01-14T05:42:43.645Z,36.40
2019-01-14T05:43:43.674Z,36.92
2019-01-14T05:44:43.692Z,37.74
2019-01-14T05:45:43.642Z,37.66
2019-01-14T05:46:43.623Z,38.57
2019-01-14T05:47:43.589Z,38.97
2019-01-14T05:48:43.583Z,38.59
2019-01-14T05:49:43.585Z,38.69
2019-01-14T05:50:43.562Z,39.21
2019-01-14T05:51:43.552Z,39.41
2019-01-14T05:52:43.549Z,39.21
2019-01-14T05:53:43.548Z,39.21
2019-01-14T05:54:43.533Z,39.61
2019-01-14T05:55:43.508Z,39.81
2019-01-14T05:56:43.492Z,39.43
2019-01-14T05:57:43.478Z,39.73
2019-01-14T05:58:43.470Z,39.83
2019-01-14T05:59:43.464Z,40.03
2019-01-14T06:00:43.470Z,39.94
2019-01-14T06:01:43.433Z,39.83
2019-01-14T06:02:43.435Z,39.53
2019-01-14T06:03:43.416Z,39.73
2019-01-14T06:04:43.422Z,39.83
2019-01-14T06:05:43.395Z,39.94
2019-01-14T06:06:43.392Z,39.81
2019-01-14T06:07:44.968Z,40.44
2019-01-14T06:08:43.358Z,40.03
2019-01-14T06:09:43.388Z,39.72
2019-01-14T06:10:43.350Z,39.61
2019-01-14T06:11:43.345Z,39.81
2019-01-14T06:12:43.336Z,40.01
2019-01-14T06:13:43.306Z,40.01
2019-01-14T06:14:43.322Z,39.92
2019-01-14T06:15:43.292Z,39.31
2019-01-14T06:16:43.273Z,39.81
2019-01-14T06:17:43.305Z,39.92
2019-01-14T06:18:43.244Z,40.12
2019-01-14T06:19:43.292Z,39.92
2019-01-14T06:20:43.234Z,40.12
2019-01-14T06:21:43.212Z,39.72
2019-01-14T06:22:43.216Z,39.21
2019-01-14T06:23:43.191Z,39.19
2019-01-14T06:24:43.187Z,38.57
2019-01-14T06:25:43.205Z,38.75
2019-01-14T06:26:43.175Z,38.93
2019-01-14T06:27:43.145Z,37.81
2019-01-14T06:28:43.178Z,36.70
2019-01-14T06:29:43.181Z,36.89
2019-01-14T06:30:43.110Z,36.27
2019-01-14T06:31:43.118Z,37.17
2019-01-14T06:32:43.089Z,35.85
2019-01-14T06:33:43.093Z,35.95
2019-01-14T06:34:43.086Z,36.55
2019-01-14T06:35:43.087Z,35.83
2019-01-14T06:36:43.050Z,35.63
2019-01-14T06:37:43.057Z,35.83
2019-01-14T06:38:43.087Z,35.33
2019-01-14T06:39:43.018Z,35.61
2019-01-14T06:40:43.035Z,35.11
2019-01-14T06:41:43.034Z,35.11
2019-01-14T06:42:43.000Z,34.91
2019-01-14T06:43:43.035Z,34.81
2019-01-14T06:44:42.980Z,34.99
2019-01-14T06:45:42.960Z,35.39
2019-01-14T06:46:42.960Z,34.69
2019-01-14T06:47:42.964Z,35.19
2019-01-14T06:48:42.917Z,34.69
2019-01-14T06:49:47.685Z,34.29
2019-01-14T06:50:42.918Z,34.69
2019-01-14T06:51:42.895Z,35.10
2019-01-14T06:52:42.935Z,34.99
2019-01-14T06:53:42.903Z,34.98
2019-01-14T06:54:42.860Z,34.98
2019-01-14T06:55:42.844Z,35.39
2019-01-14T06:56:42.824Z,35.39
2019-01-14T06:57:42.866Z,35.10
2019-01-14T06:58:42.810Z,35.30
2019-01-14T06:59:42.833Z,34.59
2019-01-14T07:00:42.829Z,35.39
2019-01-14T07:01:42.768Z,35.30
2019-01-14T07:02:42.767Z,35.60
2019-01-14T07:03:42.769Z,34.99
2019-01-14T07:04:42.745Z,35.80
2019-01-14T07:05:42.749Z,35.39
2019-01-14T07:06:42.732Z,35.69
2019-01-14T07:07:42.701Z,35.89
2019-01-14T07:08:42.715Z,35.89
2019-01-14T07:09:42.676Z,35.91
2019-01-14T07:10:42.678Z,36.21
2019-01-14T07:11:42.673Z,36.00
2019-01-14T07:12:42.656Z,36.10
2019-01-14T07:13:42.666Z,36.41
2019-01-14T07:14:42.621Z,36.10
2019-01-14T07:15:42.682Z,35.91
2019-01-14T07:16:42.612Z,36.10
2019-01-14T07:17:42.588Z,36.11
2019-01-14T07:18:42.605Z,36.00
2019-01-14T07:19:42.687Z,35.91
2019-01-14T07:20:42.571Z,36.02
2019-01-14T07:21:42.560Z,35.82
2019-01-14T07:22:42.547Z,36.32
2019-01-14T07:23:42.526Z,36.11
2019-01-14T07:24:42.511Z,35.91
2019-01-14T07:25:42.517Z,36.02
2019-01-14T07:26:42.494Z,36.11
2019-01-14T07:27:42.477Z,36.00
2019-01-14T07:28:42.467Z,36.00
2019-01-14T07:29:42.511Z,36.30
2019-01-14T07:30:42.458Z,36.30
2019-01-14T07:31:42.458Z,35.98
2019-01-14T07:32:42.425Z,35.68
2019-01-14T07:33:42.422Z,36.08
2019-01-14T07:34:42.402Z,35.76
2019-01-14T07:35:42.397Z,35.96
2019-01-14T07:36:42.426Z,35.76
2019-01-14T07:37:42.412Z,35.75
2019-01-14T07:38:42.356Z,35.86
2019-01-14T07:39:42.386Z,35.06
2019-01-14T07:40:42.388Z,35.16
2019-01-14T07:41:42.342Z,35.56
2019-01-14T07:42:42.318Z,35.16
2019-01-14T07:43:42.334Z,34.46
2019-01-14T07:44:42.318Z,34.96
2019-01-14T07:45:42.284Z,34.86
2019-01-14T07:46:42.365Z,34.56
2019-01-14T07:47:42.262Z,34.96
2019-01-14T07:48:42.258Z,34.86
2019-01-14T07:50:01.649Z,34.76
2019-01-14T07:50:42.225Z,35.06
2019-01-14T07:51:42.229Z,34.56
2019-01-14T07:52:42.231Z,34.96
2019-01-14T07:53:42.189Z,35.86
2019-01-14T07:54:42.182Z,35.76
2019-01-14T07:55:42.176Z,35.76
2019-01-14T07:56:42.174Z,35.66
2019-01-14T07:57:42.155Z,35.76
2019-01-14T07:58:42.134Z,35.66
2019-01-14T07:59:42.122Z,35.76
2019-01-14T08:00:42.115Z,35.66
2019-01-14T08:01:42.180Z,35.76
2019-01-14T08:02:42.095Z,35.76
2019-01-14T08:03:42.079Z,35.76
2019-01-14T08:04:42.067Z,35.66
2019-01-14T08:05:42.059Z,35.76
2019-01-14T08:06:42.072Z,36.16
2019-01-14T08:07:42.046Z,35.96
2019-01-14T08:08:42.057Z,36.28
2019-01-14T08:09:42.042Z,35.56
2019-01-14T08:10:42.020Z,35.76
2019-01-14T08:11:42.009Z,36.16
2019-01-14T08:12:41.993Z,36.07
2019-01-14T08:13:41.986Z,36.07
2019-01-14T08:14:42.807Z,36.08
2019-01-14T08:15:41.955Z,36.07
2019-01-14T08:16:41.945Z,36.07
2019-01-14T08:17:41.934Z,36.58
2019-01-14T08:18:41.939Z,36.57
2019-01-14T08:19:41.916Z,36.66
2019-01-14T08:20:42.022Z,36.48
2019-01-14T08:21:41.901Z,36.78
2019-01-14T08:22:41.906Z,36.66
2019-01-14T08:23:41.946Z,36.78
2019-01-14T08:24:41.849Z,36.68
2019-01-14T08:25:41.843Z,36.36
2019-01-14T08:26:41.855Z,36.58
2019-01-14T08:27:41.829Z,36.57
2019-01-14T08:28:41.880Z,36.26
2019-01-14T08:29:41.858Z,36.07
2019-01-14T08:30:41.793Z,36.18
2019-01-14T08:31:41.814Z,37.07
2019-01-14T08:32:41.766Z,37.68
2019-01-14T08:33:41.799Z,36.87
2019-01-14T08:34:41.823Z,37.66
2019-01-14T08:35:41.803Z,37.77
2019-01-14T08:36:41.731Z,37.18
2019-01-14T08:37:41.747Z,37.18
2019-01-14T08:38:41.703Z,37.27
2019-01-14T08:39:41.706Z,37.07
2019-01-14T08:40:41.707Z,37.16
2019-01-14T08:41:41.752Z,37.38
2019-01-14T08:42:41.667Z,37.38
2019-01-14T08:43:41.736Z,37.68
2019-01-14T08:44:41.627Z,36.68
2019-01-14T08:45:41.702Z,36.58
2019-01-14T08:46:41.673Z,36.88
2019-01-14T08:47:41.683Z,36.66
2019-01-14T08:48:48.658Z,36.38
2019-01-14T08:49:42.569Z,36.48
2019-01-14T08:50:46.331Z,36.98
2019-01-14T08:51:41.553Z,38.09
2019-01-14T08:52:41.552Z,37.48
2019-01-14T08:53:41.540Z,37.18
2019-01-14T08:54:41.544Z,36.78
2019-01-14T08:55:41.601Z,37.28
2019-01-14T08:56:41.491Z,37.48
2019-01-14T08:57:41.492Z,37.28
2019-01-14T08:58:41.508Z,37.38
2019-01-14T08:59:41.458Z,37.79
2019-01-14T09:00:41.460Z,38.29
2019-01-14T09:01:41.491Z,38.29
2019-01-14T09:02:41.432Z,38.09
2019-01-14T09:03:41.426Z,38.09
2019-01-14T09:04:41.410Z,38.29
2019-01-14T09:05:41.396Z,37.88
2019-01-14T09:06:41.418Z,37.59
2019-01-14T09:07:41.373Z,37.59
2019-01-14T09:08:41.366Z,37.88
2019-01-14T09:09:41.350Z,37.68
2019-01-14T09:10:41.336Z,37.88
2019-01-14T09:11:41.332Z,37.68
2019-01-14T09:12:41.329Z,37.79
2019-01-14T09:13:41.318Z,37.59
2019-01-14T09:14:41.292Z,37.48
2019-01-14T09:15:41.284Z,37.48
2019-01-14T09:16:41.281Z,37.38
2019-01-14T09:17:41.265Z,37.68
2019-01-14T09:18:41.264Z,37.88
2019-01-14T09:19:41.305Z,37.88
2019-01-14T09:20:41.294Z,37.68
2019-01-14T09:21:41.281Z,37.88
2019-01-14T09:22:41.205Z,37.79
2019-01-14T09:23:42.321Z,37.88
2019-01-14T09:24:41.182Z,38.07
2019-01-14T09:25:41.169Z,38.29
2019-01-14T09:26:41.176Z,37.98
2019-01-14T09:27:41.158Z,37.38
2019-01-14T09:28:41.145Z,38.18
2019-01-14T09:29:41.163Z,37.68
2019-01-14T09:30:41.131Z,37.28
2019-01-14T09:31:41.112Z,38.59
2019-01-14T09:32:41.104Z,37.98
2019-01-14T09:33:41.141Z,38.59
2019-01-14T09:34:41.069Z,38.59
2019-01-14T09:35:41.070Z,37.88
2019-01-14T09:36:41.052Z,38.39
2019-01-14T09:37:41.045Z,37.80
2019-01-14T09:38:41.026Z,38.39
2019-01-14T09:39:41.021Z,37.68
2019-01-14T09:40:41.007Z,38.09
2019-01-14T09:41:40.999Z,38.09
2019-01-14T09:42:41.036Z,37.88
2019-01-14T09:43:41.004Z,38.79
2019-01-14T09:44:41.683Z,38.59
2019-01-14T09:45:40.949Z,38.68
2019-01-14T09:46:40.940Z,38.09
2019-01-14T09:47:40.954Z,38.18
2019-01-14T09:48:40.914Z,38.79
2019-01-14T09:49:45.555Z,38.18
2019-01-14T09:50:40.936Z,38.29
2019-01-14T09:51:40.884Z,38.39
2019-01-14T09:52:40.888Z,38.49
2019-01-14T09:53:40.883Z,37.88
2019-01-14T09:54:40.862Z,38.09
2019-01-14T09:55:40.840Z,37.88
2019-01-14T09:56:40.858Z,37.88
2019-01-14T09:57:40.829Z,38.09
2019-01-14T09:58:40.821Z,38.49
2019-01-14T09:59:40.889Z,38.18
2019-01-14T10:00:40.796Z,38.39
2019-01-14T10:01:40.814Z,38.39
2019-01-14T10:02:40.776Z,38.39
2019-01-14T10:03:40.746Z,38.59
2019-01-14T10:04:46.891Z,38.18
2019-01-14T10:05:43.201Z,38.29
2019-01-14T10:06:40.724Z,37.48
2019-01-14T10:07:40.704Z,38.59
2019-01-14T10:08:43.228Z,37.68
2019-01-14T10:09:40.681Z,37.68
2019-01-14T10:10:40.793Z,37.66
2019-01-14T10:11:40.793Z,37.66
2019-01-14T10:12:40.654Z,37.87
2019-01-14T10:13:40.663Z,37.79
2019-01-14T10:14:40.691Z,38.17
2019-01-14T10:15:40.646Z,38.18
2019-01-14T10:16:40.615Z,37.88
2019-01-14T10:17:40.599Z,37.88
2019-01-14T10:18:40.590Z,37.48
2019-01-14T10:19:40.590Z,37.68
2019-01-14T10:20:40.664Z,37.66
2019-01-14T10:21:40.633Z,37.79
2019-01-14T10:22:40.538Z,37.98
2019-01-14T10:23:40.543Z,38.09
2019-01-14T10:24:40.522Z,37.98
2019-01-14T10:25:40.510Z,38.18
2019-01-14T10:26:40.494Z,37.98
2019-01-14T10:27:40.752Z,37.68
2019-01-14T10:28:40.470Z,37.38
2019-01-14T10:29:40.464Z,37.48
2019-01-14T10:30:40.564Z,37.68
2019-01-14T10:31:40.441Z,37.57
2019-01-14T10:32:40.432Z,38.18
2019-01-14T10:33:40.555Z,37.28
2019-01-14T10:34:40.413Z,37.27
2019-01-14T10:35:40.421Z,36.98
2019-01-14T10:36:40.382Z,36.98
2019-01-14T10:37:40.375Z,36.98
2019-01-14T10:38:40.368Z,37.46
2019-01-14T10:39:40.387Z,37.27
2019-01-14T10:40:40.367Z,37.28
2019-01-14T10:41:40.340Z,37.38
2019-01-14T10:42:40.329Z,37.16
2019-01-14T10:43:40.315Z,37.68
2019-01-14T10:44:40.301Z,38.18
2019-01-14T10:45:40.289Z,37.79
2019-01-14T10:46:40.329Z,37.68
2019-01-14T10:47:40.304Z,38.18
2019-01-14T10:48:40.249Z,37.87
2019-01-14T10:49:40.239Z,38.17
2019-01-14T10:50:40.328Z,37.48
2019-01-14T10:51:40.225Z,37.88
2019-01-14T10:52:40.205Z,37.38
2019-01-14T10:53:40.199Z,36.48
2019-01-14T10:54:40.214Z,37.16
2019-01-14T10:55:40.176Z,36.88
2019-01-14T10:56:44.117Z,37.46
2019-01-14T10:57:40.169Z,37.08
2019-01-14T10:58:40.167Z,37.08
2019-01-14T10:59:40.139Z,36.28
2019-01-14T11:00:40.136Z,36.26
2019-01-14T11:01:40.201Z,36.76
2019-01-14T11:02:40.095Z,36.46
2019-01-14T11:03:40.099Z,36.57
2019-01-14T11:04:40.074Z,36.66
2019-01-14T11:05:40.068Z,36.46
2019-01-14T11:06:40.092Z,36.36
2019-01-14T11:07:40.054Z,36.46
2019-01-14T11:08:40.044Z,36.36
2019-01-14T11:09:44.540Z,36.28
2019-01-14T11:10:40.012Z,36.46
2019-01-14T11:11:40.005Z,36.78
2019-01-14T11:12:39.994Z,36.28
2019-01-14T11:13:39.985Z,36.18
2019-01-14T11:14:39.984Z,36.68
2019-01-14T11:15:39.959Z,37.08
2019-01-14T11:16:39.966Z,36.78
2019-01-14T11:17:39.966Z,36.18
2019-01-14T11:18:39.949Z,37.28
2019-01-14T11:19:39.938Z,37.08
2019-01-14T11:20:40.093Z,36.28
2019-01-14T11:21:40.011Z,36.18
2019-01-14T11:22:39.901Z,36.38
2019-01-14T11:23:39.916Z,36.98
2019-01-14T11:24:39.884Z,36.88
2019-01-14T11:25:39.861Z,36.48
2019-01-14T11:26:39.848Z,36.58
2019-01-14T11:27:39.859Z,35.68
2019-01-14T11:28:39.830Z,36.46
2019-01-14T11:29:39.827Z,35.66
2019-01-14T11:30:39.788Z,36.98
2019-01-14T11:31:39.785Z,36.48
2019-01-14T11:32:39.777Z,36.78
2019-01-14T11:33:39.821Z,36.57
2019-01-14T11:34:39.762Z,36.28
2019-01-14T11:35:39.791Z,37.07
2019-01-14T11:36:39.730Z,36.78
2019-01-14T11:37:39.768Z,36.78
2019-01-14T11:38:39.724Z,36.57
2019-01-14T11:39:39.701Z,36.48
2019-01-14T11:40:39.684Z,36.88
2019-01-14T11:41:39.673Z,37.18
2019-01-14T11:42:39.676Z,37.08
2019-01-14T11:43:39.648Z,36.66
2019-01-14T11:44:39.665Z,36.87
2019-01-14T11:45:39.627Z,37.28
2019-01-14T11:46:39.625Z,36.87
2019-01-14T11:47:39.644Z,37.66
2019-01-14T11:48:39.590Z,37.07
2019-01-14T11:49:39.643Z,37.37
2019-01-14T11:50:39.602Z,37.07
2019-01-14T11:51:39.592Z,36.16
2019-01-14T11:52:39.587Z,36.66
2019-01-14T11:53:39.573Z,36.46
2019-01-14T11:54:39.538Z,36.76
2019-01-14T11:55:39.518Z,35.86
2019-01-14T11:56:39.517Z,35.88
2019-01-14T11:57:39.509Z,35.86
2019-01-14T11:58:39.503Z,36.68
2019-01-14T11:59:39.478Z,36.48
2019-01-14T12:00:39.510Z,36.28
2019-01-14T12:01:39.458Z,36.28
2019-01-14T12:02:39.832Z,35.68
2019-01-14T12:03:39.438Z,35.48
2019-01-14T12:04:39.428Z,35.68
2019-01-14T12:05:39.403Z,35.76
2019-01-14T12:06:39.391Z,35.16
2019-01-14T12:07:39.439Z,35.66
2019-01-14T12:08:39.401Z,34.86
2019-01-14T12:09:39.366Z,35.06
2019-01-14T12:10:39.352Z,34.66
2019-01-14T12:11:39.525Z,34.26
2019-01-14T12:12:39.331Z,34.86
2019-01-14T12:13:39.358Z,35.16
2019-01-14T12:14:39.309Z,34.55
2019-01-14T12:15:39.315Z,34.94
2019-01-14T12:16:39.362Z,34.94
2019-01-14T12:17:39.353Z,34.56
2019-01-14T12:18:39.272Z,34.86
2019-01-14T12:19:39.262Z,34.76
2019-01-14T12:20:39.243Z,34.05
2019-01-14T12:21:39.235Z,35.14
2019-01-14T12:22:39.215Z,33.84
2019-01-14T12:23:39.207Z,35.14
2019-01-14T12:24:39.265Z,34.44
2019-01-14T12:25:39.284Z,34.44
2019-01-14T12:26:39.171Z,33.44
2019-01-14T12:27:39.182Z,34.34
2019-01-14T12:28:39.171Z,34.14
2019-01-14T12:29:39.143Z,34.55
2019-01-14T12:30:39.134Z,34.64
2019-01-14T12:31:39.151Z,34.05
2019-01-14T12:32:39.147Z,34.74
2019-01-14T12:33:39.140Z,34.34
2019-01-14T12:34:39.078Z,34.23
2019-01-14T12:35:39.074Z,34.73
2019-01-14T12:36:39.151Z,33.12
2019-01-14T12:37:39.056Z,33.12
2019-01-14T12:38:39.117Z,33.12
2019-01-14T12:39:39.064Z,33.12
2019-01-14T12:40:39.030Z,34.53
2019-01-14T12:41:39.012Z,33.62
2019-01-14T12:42:39.005Z,33.73
2019-01-14T12:43:39.023Z,34.53
2019-01-14T12:44:39.007Z,34.63
2019-01-14T12:45:38.964Z,34.63
2019-01-14T12:46:39.071Z,34.73
2019-01-14T12:47:38.937Z,34.33
2019-01-14T12:48:38.977Z,34.43
2019-01-14T12:49:38.952Z,34.33
2019-01-14T12:50:38.919Z,34.33
2019-01-14T12:51:38.893Z,34.12
2019-01-14T12:52:38.901Z,33.93